Detall de PIREP

Printer-friendly versionPDF version

[2012/05/12 14:28:00]
Flight IATA:CT3404
Pilot Number:042
Company ICAO:CAT
Aircraft Type:B763/F
PAX:200
Departing Airport: LEBL
Destination Airport: GCLP
Alternate Airport:GCXO
Online: VATSIM
Route:LOTOS UM985 YES UM985 MGA UN869 RUSIK
Flight Level:F350
No Slew and time accel
No pause
Crash detect
Detect pilot in Cockpit between each 30 and 45 minutes
14:28 Zero fuel Weight: 244976 Lbs, Fuel Weight: 161649 Lbs
14:28 VATSIM:LEBL 121400Z 19005KT 140V240 9999 FEW035 23/15 Q1023 NOSIG
14:28 VATSIM:GCLP 121400Z 03019KT CAVOK 27/17 Q1017 NOSIG
14:29 VOICE CATALONIAN
14:40 Parking Brakes off
14:49 Take-off
14:49 Take off Weight: 403806 Lbs
14:49 Wind: 216º @ 006 Knots Heading: 244º
14:49 POS N41º 17´ 03´´ E002º 04´ 48´´
14:49 Gear Up: 188 Knots
14:49 Flaps:3 at 188 Knots
14:49 Flaps:2 at 193 Knots
14:49 Flaps:1 at 195 Knots
14:50 Flaps:0 at 226 Knots
15:04 Wind:155º@015 Knots Heading: 225º Ground Speed: 461 Knots Altitude 32867 ft
15:05 TOC
15:05 Fuel Weight: 150771 Lb
15:19 Wind:248º@013 Knots Heading: 233º Ground Speed: 456 Knots Altitude 35318 ft
15:34 Wind:226º@010 Knots Heading: 226º Ground Speed: 458 Knots Altitude 35305 ft
15:49 Wind:128º@025 Knots Heading: 209º Ground Speed: 460 Knots Altitude 35282 ft
16:04 Wind:038º@027 Knots Heading: 215º Ground Speed: 495 Knots Altitude 35190 ft
16:19 Wind:346º@041 Knots Heading: 213º Ground Speed: 502 Knots Altitude 35118 ft
16:34 Wind:321º@028 Knots Heading: 212º Ground Speed: 488 Knots Altitude 35114 ft
16:49 Wind:282º@071 Knots Heading: 250º Ground Speed: 419 Knots Altitude 35055 ft
17:04 Wind:068º@051 Knots Heading: 243º Ground Speed: 515 Knots Altitude 35068 ft
17:08 TOD
17:08 Fuel Weight: 127959 Lb
17:19 Wind:037º@038 Knots Heading: 262º Ground Speed: 413 Knots Altitude 15511 ft
17:22 Flaps:1 at 250 Knots
17:28 Flaps:2 at 210 Knots
17:34 Wind:029º@030 Knots Heading: 006º Ground Speed: 176 Knots Altitude 3225 ft
17:34 Flaps:3 at 185 Knots
17:36 Gear Down: 177 Knots
17:36 Flaps:4 at 175 Knots
17:36 Flaps:5 at 175 Knots
17:37 Flaps:6 at 161 Knots
17:39 TouchDown:Rate -139 ft/min Speed: 138 Knots
17:39 VATSIM:GCLP 121730Z 02019KT CAVOK 27/17 Q1016 NOSIG
17:39 Land
17:39 Wind:038º@019 Knots
17:39 Heading: 017º
17:39 Flight Duration: 02:50
17:39 Landing Weight: 368896 Lbs
17:39 POS N27º 56´ 07´´ W015º 23´ 05´´
17:45 Parking brakes on
17:45 Block to Block Duration: 03:05
17:45 Final Fuel: 123049 Lbls
17:45 Spent Fuel: 38600 Lbls
17:45 Flight Length: 1246 NM
17:45 TOD Land Length: 169 NM

Exportar CSV

Powered by Drupal - Modified by Danger4k